sensor_id;sensor_type;location;lat;lon;timestamp;P1;durP1;ratioP1;P2;durP2;ratioP2
16577;SDS011;8401;52.528;13.340;2023-10-13T00:00:32;7.90;;;3.83;;
16577;SDS011;8401;52.528;13.340;2023-10-13T00:03:01;8.70;;;3.67;;
16577;SDS011;8401;52.528;13.340;2023-10-13T00:05:28;7.60;;;3.70;;
16577;SDS011;8401;52.528;13.340;2023-10-13T00:07:58;8.90;;;3.37;;
16577;SDS011;8401;52.528;13.340;2023-10-13T00:10:31;6.77;;;3.40;;
16577;SDS011;8401;52.528;13.340;2023-10-13T00:12:58;7.83;;;3.30;;
16577;SDS011;8401;52.528;13.340;2023-10-13T00:15:50;7.50;;;4.10;;
16577;SDS011;8401;52.528;13.340;2023-10-13T00:18:23;4.97;;;3.43;;
16577;SDS011;8401;52.528;13.340;2023-10-13T00:20:58;5.67;;;4.10;;
16577;SDS011;8401;52.528;13.340;2023-10-13T00:23:24;7.47;;;3.73;;
16577;SDS011;8401;52.528;13.340;2023-10-13T00:25:52;6.17;;;4.10;;
16577;SDS011;8401;52.528;13.340;2023-10-13T00:28:27;7.47;;;4.00;;
16577;SDS011;8401;52.528;13.340;2023-10-13T00:31:00;11.20;;;4.97;;
16577;SDS011;8401;52.528;13.340;2023-10-13T00:33:35;5.67;;;4.03;;
16577;SDS011;8401;52.528;13.340;2023-10-13T00:36:06;8.47;;;4.90;;
16577;SDS011;8401;52.528;13.340;2023-10-13T00:38:33;11.00;;;4.97;;
16577;SDS011;8401;52.528;13.340;2023-10-13T00:41:00;9.13;;;4.53;;
16577;SDS011;8401;52.528;13.340;2023-10-13T00:43:44;8.07;;;4.67;;
16577;SDS011;8401;52.528;13.340;2023-10-13T00:46:10;6.97;;;4.87;;
16577;SDS011;8401;52.528;13.340;2023-10-13T00:48:40;12.10;;;4.67;;
16577;SDS011;8401;52.528;13.340;2023-10-13T00:51:08;7.73;;;4.90;;
16577;SDS011;8401;52.528;13.340;2023-10-13T00:53:53;8.40;;;4.50;;
16577;SDS011;8401;52.528;13.340;2023-10-13T00:56:21;9.70;;;3.90;;
16577;SDS011;8401;52.528;13.340;2023-10-13T00:58:53;4.97;;;3.60;;
16577;SDS011;8401;52.528;13.340;2023-10-13T01:01:22;7.30;;;3.70;;
16577;SDS011;8401;52.528;13.340;2023-10-13T01:03:54;7.57;;;3.63;;
16577;SDS011;8401;52.528;13.340;2023-10-13T01:06:24;5.80;;;3.40;;
16577;SDS011;8401;52.528;13.340;2023-10-13T01:11:44;6.17;;;3.50;;
16577;SDS011;8401;52.528;13.340;2023-10-13T01:14:13;6.10;;;2.70;;
16577;SDS011;8401;52.528;13.340;2023-10-13T01:16:43;7.37;;;3.20;;
16577;SDS011;8401;52.528;13.340;2023-10-13T01:19:10;11.17;;;3.77;;
16577;SDS011;8401;52.528;13.340;2023-10-13T01:21:37;4.23;;;2.90;;
16577;SDS011;8401;52.528;13.340;2023-10-13T01:24:05;7.03;;;3.10;;
16577;SDS011;8401;52.528;13.340;2023-10-13T01:26:33;5.20;;;3.23;;
16577;SDS011;8401;52.528;13.340;2023-10-13T01:29:03;5.73;;;3.47;;
16577;SDS011;8401;52.528;13.340;2023-10-13T01:31:42;6.93;;;3.40;;
16577;SDS011;8401;52.528;13.340;2023-10-13T01:34:15;7.17;;;3.80;;
16577;SDS011;8401;52.528;13.340;2023-10-13T01:36:50;7.97;;;3.50;;
16577;SDS011;8401;52.528;13.340;2023-10-13T01:39:20;7.13;;;3.70;;
16577;SDS011;8401;52.528;13.340;2023-10-13T01:41:51;6.90;;;3.73;;
16577;SDS011;8401;52.528;13.340;2023-10-13T01:44:29;8.23;;;4.40;;
16577;SDS011;8401;52.528;13.340;2023-10-13T01:46:58;6.07;;;4.37;;
16577;SDS011;8401;52.528;13.340;2023-10-13T01:49:31;8.33;;;4.73;;
16577;SDS011;8401;52.528;13.340;2023-10-13T01:52:07;7.20;;;5.13;;
16577;SDS011;8401;52.528;13.340;2023-10-13T01:54:36;10.60;;;5.50;;
16577;SDS011;8401;52.528;13.340;2023-10-13T01:57:05;12.00;;;5.83;;
16577;SDS011;8401;52.528;13.340;2023-10-13T01:59:34;8.27;;;5.60;;
16577;SDS011;8401;52.528;13.340;2023-10-13T02:02:08;9.40;;;5.50;;
16577;SDS011;8401;52.528;13.340;2023-10-13T02:04:38;8.43;;;5.60;;
16577;SDS011;8401;52.528;13.340;2023-10-13T02:07:14;12.43;;;6.83;;
16577;SDS011;8401;52.528;13.340;2023-10-13T02:09:40;9.63;;;6.43;;
16577;SDS011;8401;52.528;13.340;2023-10-13T02:12:07;12.13;;;7.97;;
16577;SDS011;8401;52.528;13.340;2023-10-13T02:14:34;11.47;;;7.03;;
16577;SDS011;8401;52.528;13.340;2023-10-13T02:17:02;10.37;;;6.97;;
16577;SDS011;8401;52.528;13.340;2023-10-13T02:19:37;11.37;;;6.90;;
16577;SDS011;8401;52.528;13.340;2023-10-13T02:22:10;12.33;;;8.20;;
16577;SDS011;8401;52.528;13.340;2023-10-13T02:24:37;9.87;;;7.13;;
16577;SDS011;8401;52.528;13.340;2023-10-13T02:27:08;12.50;;;7.53;;
16577;SDS011;8401;52.528;13.340;2023-10-13T02:29:40;10.83;;;7.33;;
16577;SDS011;8401;52.528;13.340;2023-10-13T02:32:06;11.30;;;8.13;;
16577;SDS011;8401;52.528;13.340;2023-10-13T02:34:39;10.10;;;6.93;;
16577;SDS011;8401;52.528;13.340;2023-10-13T02:37:09;12.30;;;7.67;;
16577;SDS011;8401;52.528;13.340;2023-10-13T02:39:35;12.83;;;8.53;;
16577;SDS011;8401;52.528;13.340;2023-10-13T02:42:01;14.07;;;8.60;;
16577;SDS011;8401;52.528;13.340;2023-10-13T02:44:32;18.30;;;9.40;;
16577;SDS011;8401;52.528;13.340;2023-10-13T02:46:59;18.33;;;9.67;;
16577;SDS011;8401;52.528;13.340;2023-10-13T02:49:25;18.47;;;10.47;;
16577;SDS011;8401;52.528;13.340;2023-10-13T02:51:52;19.50;;;10.13;;
16577;SDS011;8401;52.528;13.340;2023-10-13T02:54:20;14.63;;;9.60;;
16577;SDS011;8401;52.528;13.340;2023-10-13T02:56:46;16.60;;;10.07;;
16577;SDS011;8401;52.528;13.340;2023-10-13T02:59:22;17.50;;;10.77;;
16577;SDS011;8401;52.528;13.340;2023-10-13T03:01:59;16.30;;;10.23;;
16577;SDS011;8401;52.528;13.340;2023-10-13T03:04:31;16.00;;;9.63;;
16577;SDS011;8401;52.528;13.340;2023-10-13T03:06:57;18.20;;;10.40;;
16577;SDS011;8401;52.528;13.340;2023-10-13T03:09:24;17.93;;;10.30;;
16577;SDS011;8401;52.528;13.340;2023-10-13T03:11:50;14.53;;;10.13;;
16577;SDS011;8401;52.528;13.340;2023-10-13T03:14:17;16.03;;;10.97;;
16577;SDS011;8401;52.528;13.340;2023-10-13T03:17:00;17.43;;;9.27;;
16577;SDS011;8401;52.528;13.340;2023-10-13T03:19:43;15.17;;;9.47;;
16577;SDS011;8401;52.528;13.340;2023-10-13T03:22:15;16.57;;;10.37;;
16577;SDS011;8401;52.528;13.340;2023-10-13T03:24:44;17.27;;;9.07;;
16577;SDS011;8401;52.528;13.340;2023-10-13T03:27:13;15.77;;;10.10;;
16577;SDS011;8401;52.528;13.340;2023-10-13T03:29:43;13.17;;;9.43;;
16577;SDS011;8401;52.528;13.340;2023-10-13T03:32:10;18.27;;;9.63;;
16577;SDS011;8401;52.528;13.340;2023-10-13T03:34:40;14.93;;;9.83;;
16577;SDS011;8401;52.528;13.340;2023-10-13T03:37:14;16.17;;;9.17;;
16577;SDS011;8401;52.528;13.340;2023-10-13T03:40:01;17.63;;;9.93;;
16577;SDS011;8401;52.528;13.340;2023-10-13T03:42:31;13.03;;;8.37;;
16577;SDS011;8401;52.528;13.340;2023-10-13T03:44:57;15.87;;;10.27;;
16577;SDS011;8401;52.528;13.340;2023-10-13T03:47:23;20.80;;;10.17;;
16577;SDS011;8401;52.528;13.340;2023-10-13T03:49:54;16.87;;;10.87;;
16577;SDS011;8401;52.528;13.340;2023-10-13T03:52:40;17.70;;;10.60;;
16577;SDS011;8401;52.528;13.340;2023-10-13T03:55:06;19.23;;;11.87;;
16577;SDS011;8401;52.528;13.340;2023-10-13T03:57:32;20.03;;;11.80;;
16577;SDS011;8401;52.528;13.340;2023-10-13T04:00:03;14.43;;;10.83;;
16577;SDS011;8401;52.528;13.340;2023-10-13T04:02:33;18.50;;;11.27;;
16577;SDS011;8401;52.528;13.340;2023-10-13T04:04:59;18.17;;;11.60;;
16577;SDS011;8401;52.528;13.340;2023-10-13T04:07:32;19.47;;;12.87;;
16577;SDS011;8401;52.528;13.340;2023-10-13T04:10:04;20.90;;;13.23;;
16577;SDS011;8401;52.528;13.340;2023-10-13T04:13:04;18.33;;;11.83;;
16577;SDS011;8401;52.528;13.340;2023-10-13T04:15:48;22.93;;;13.00;;
16577;SDS011;8401;52.528;13.340;2023-10-13T04:18:40;21.70;;;12.47;;
16577;SDS011;8401;52.528;13.340;2023-10-13T04:21:28;16.83;;;10.90;;
16577;SDS011;8401;52.528;13.340;2023-10-13T04:24:04;24.27;;;11.87;;
16577;SDS011;8401;52.528;13.340;2023-10-13T04:26:42;18.43;;;11.70;;
16577;SDS011;8401;52.528;13.340;2023-10-13T04:29:28;19.70;;;12.77;;
16577;SDS011;8401;52.528;13.340;2023-10-13T04:32:15;21.47;;;13.03;;
16577;SDS011;8401;52.528;13.340;2023-10-13T04:34:53;24.63;;;13.53;;
16577;SDS011;8401;52.528;13.340;2023-10-13T04:37:45;19.97;;;12.13;;
16577;SDS011;8401;52.528;13.340;2023-10-13T04:40:14;22.10;;;12.73;;
16577;SDS011;8401;52.528;13.340;2023-10-13T04:42:42;23.57;;;13.20;;
16577;SDS011;8401;52.528;13.340;2023-10-13T04:45:17;20.10;;;12.97;;
16577;SDS011;8401;52.528;13.340;2023-10-13T04:47:54;24.43;;;13.17;;
16577;SDS011;8401;52.528;13.340;2023-10-13T04:50:43;19.13;;;12.90;;
16577;SDS011;8401;52.528;13.340;2023-10-13T04:53:12;19.97;;;12.83;;
16577;SDS011;8401;52.528;13.340;2023-10-13T04:56:20;21.10;;;14.00;;
16577;SDS011;8401;52.528;13.340;2023-10-13T04:59:23;22.40;;;14.00;;
16577;SDS011;8401;52.528;13.340;2023-10-13T05:02:02;22.57;;;12.93;;
16577;SDS011;8401;52.528;13.340;2023-10-13T05:04:47;19.03;;;12.83;;
16577;SDS011;8401;52.528;13.340;2023-10-13T05:07:31;18.17;;;12.80;;
16577;SDS011;8401;52.528;13.340;2023-10-13T05:10:18;21.40;;;13.47;;
16577;SDS011;8401;52.528;13.340;2023-10-13T05:13:04;21.07;;;13.03;;
16577;SDS011;8401;52.528;13.340;2023-10-13T05:15:49;20.10;;;13.37;;
16577;SDS011;8401;52.528;13.340;2023-10-13T05:18:34;24.67;;;13.80;;
16577;SDS011;8401;52.528;13.340;2023-10-13T05:21:19;20.37;;;13.17;;
16577;SDS011;8401;52.528;13.340;2023-10-13T05:24:04;22.23;;;13.40;;
16577;SDS011;8401;52.528;13.340;2023-10-13T05:26:48;17.97;;;12.47;;
16577;SDS011;8401;52.528;13.340;2023-10-13T05:29:32;21.07;;;14.73;;
16577;SDS011;8401;52.528;13.340;2023-10-13T05:32:17;19.07;;;13.37;;
16577;SDS011;8401;52.528;13.340;2023-10-13T05:35:01;23.93;;;13.90;;
16577;SDS011;8401;52.528;13.340;2023-10-13T05:37:46;21.90;;;13.60;;
16577;SDS011;8401;52.528;13.340;2023-10-13T05:40:30;17.00;;;12.60;;
16577;SDS011;8401;52.528;13.340;2023-10-13T05:43:14;20.10;;;12.67;;
16577;SDS011;8401;52.528;13.340;2023-10-13T05:46:01;18.27;;;13.47;;
16577;SDS011;8401;52.528;13.340;2023-10-13T05:48:47;21.73;;;13.50;;
16577;SDS011;8401;52.528;13.340;2023-10-13T05:51:28;20.13;;;13.37;;
16577;SDS011;8401;52.528;13.340;2023-10-13T05:54:00;18.57;;;13.57;;
16577;SDS011;8401;52.528;13.340;2023-10-13T05:56:45;22.43;;;13.77;;
16577;SDS011;8401;52.528;13.340;2023-10-13T05:59:34;20.23;;;13.03;;
16577;SDS011;8401;52.528;13.340;2023-10-13T06:02:20;20.27;;;12.53;;
16577;SDS011;8401;52.528;13.340;2023-10-13T06:05:06;19.23;;;12.67;;
16577;SDS011;8401;52.528;13.340;2023-10-13T06:07:51;20.60;;;14.00;;
16577;SDS011;8401;52.528;13.340;2023-10-13T06:10:36;20.87;;;13.23;;
16577;SDS011;8401;52.528;13.340;2023-10-13T06:13:21;19.60;;;12.53;;
16577;SDS011;8401;52.528;13.340;2023-10-13T06:16:06;21.03;;;12.60;;
16577;SDS011;8401;52.528;13.340;2023-10-13T06:18:54;19.77;;;12.63;;
16577;SDS011;8401;52.528;13.340;2023-10-13T06:21:38;18.17;;;12.17;;
16577;SDS011;8401;52.528;13.340;2023-10-13T06:24:23;22.77;;;11.63;;
16577;SDS011;8401;52.528;13.340;2023-10-13T06:27:07;17.23;;;12.10;;
16577;SDS011;8401;52.528;13.340;2023-10-13T06:29:51;16.77;;;11.70;;
16577;SDS011;8401;52.528;13.340;2023-10-13T06:32:18;19.40;;;11.33;;
16577;SDS011;8401;52.528;13.340;2023-10-13T06:34:45;18.30;;;11.80;;
16577;SDS011;8401;52.528;13.340;2023-10-13T06:37:14;19.87;;;12.03;;
16577;SDS011;8401;52.528;13.340;2023-10-13T06:40:02;19.80;;;12.33;;
16577;SDS011;8401;52.528;13.340;2023-10-13T06:42:47;19.20;;;13.63;;
16577;SDS011;8401;52.528;13.340;2023-10-13T06:45:13;18.50;;;11.63;;
16577;SDS011;8401;52.528;13.340;2023-10-13T06:47:42;15.47;;;11.87;;
16577;SDS011;8401;52.528;13.340;2023-10-13T06:50:14;19.03;;;11.60;;
16577;SDS011;8401;52.528;13.340;2023-10-13T06:52:41;20.77;;;12.23;;
16577;SDS011;8401;52.528;13.340;2023-10-13T06:55:08;19.27;;;12.73;;
16577;SDS011;8401;52.528;13.340;2023-10-13T06:57:42;20.30;;;12.03;;
16577;SDS011;8401;52.528;13.340;2023-10-13T07:00:09;15.77;;;11.30;;
16577;SDS011;8401;52.528;13.340;2023-10-13T07:02:44;14.90;;;11.27;;
16577;SDS011;8401;52.528;13.340;2023-10-13T07:05:12;14.90;;;10.63;;
16577;SDS011;8401;52.528;13.340;2023-10-13T07:07:39;16.40;;;10.47;;
16577;SDS011;8401;52.528;13.340;2023-10-13T07:10:08;17.90;;;10.93;;
16577;SDS011;8401;52.528;13.340;2023-10-13T07:12:38;14.93;;;10.47;;
16577;SDS011;8401;52.528;13.340;2023-10-13T07:15:08;12.40;;;10.00;;
16577;SDS011;8401;52.528;13.340;2023-10-13T07:17:37;13.43;;;9.70;;
16577;SDS011;8401;52.528;13.340;2023-10-13T07:20:05;13.73;;;9.67;;
16577;SDS011;8401;52.528;13.340;2023-10-13T07:23:01;13.50;;;10.20;;
16577;SDS011;8401;52.528;13.340;2023-10-13T07:25:31;14.77;;;9.53;;
16577;SDS011;8401;52.528;13.340;2023-10-13T07:28:06;12.90;;;8.67;;
16577;SDS011;8401;52.528;13.340;2023-10-13T07:30:34;13.37;;;8.43;;
16577;SDS011;8401;52.528;13.340;2023-10-13T07:33:35;11.50;;;8.70;;
16577;SDS011;8401;52.528;13.340;2023-10-13T07:38:36;11.73;;;8.80;;
16577;SDS011;8401;52.528;13.340;2023-10-13T07:41:07;15.23;;;8.63;;
16577;SDS011;8401;52.528;13.340;2023-10-13T07:43:33;13.50;;;9.10;;
16577;SDS011;8401;52.528;13.340;2023-10-13T07:45:59;12.60;;;7.73;;
16577;SDS011;8401;52.528;13.340;2023-10-13T07:48:31;12.80;;;7.73;;
16577;SDS011;8401;52.528;13.340;2023-10-13T07:51:05;10.67;;;7.97;;
16577;SDS011;8401;52.528;13.340;2023-10-13T07:53:36;13.57;;;8.27;;
16577;SDS011;8401;52.528;13.340;2023-10-13T07:56:05;12.17;;;7.87;;
16577;SDS011;8401;52.528;13.340;2023-10-13T07:58:36;9.77;;;6.33;;
16577;SDS011;8401;52.528;13.340;2023-10-13T08:01:20;15.43;;;8.30;;
16577;SDS011;8401;52.528;13.340;2023-10-13T08:03:46;11.77;;;7.77;;
16577;SDS011;8401;52.528;13.340;2023-10-13T08:06:14;13.40;;;7.40;;
16577;SDS011;8401;52.528;13.340;2023-10-13T08:08:40;10.47;;;6.73;;
16577;SDS011;8401;52.528;13.340;2023-10-13T08:11:09;11.23;;;6.70;;
16577;SDS011;8401;52.528;13.340;2023-10-13T08:14:06;8.67;;;6.73;;
16577;SDS011;8401;52.528;13.340;2023-10-13T08:16:47;10.53;;;6.53;;
16577;SDS011;8401;52.528;13.340;2023-10-13T08:19:20;7.07;;;6.13;;
16577;SDS011;8401;52.528;13.340;2023-10-13T08:21:57;11.77;;;6.77;;
16577;SDS011;8401;52.528;13.340;2023-10-13T08:24:27;10.53;;;6.33;;
16577;SDS011;8401;52.528;13.340;2023-10-13T08:27:14;12.37;;;7.03;;
16577;SDS011;8401;52.528;13.340;2023-10-13T08:29:59;7.93;;;6.20;;
16577;SDS011;8401;52.528;13.340;2023-10-13T08:32:26;10.50;;;6.73;;
16577;SDS011;8401;52.528;13.340;2023-10-13T08:34:55;9.37;;;7.33;;
16577;SDS011;8401;52.528;13.340;2023-10-13T08:37:22;7.78;;;6.40;;
16577;SDS011;8401;52.528;13.340;2023-10-13T08:39:58;12.13;;;6.68;;
16577;SDS011;8401;52.528;13.340;2023-10-13T08:42:29;11.10;;;6.90;;
16577;SDS011;8401;52.528;13.340;2023-10-13T08:45:19;10.10;;;5.82;;
16577;SDS011;8401;52.528;13.340;2023-10-13T08:47:58;7.82;;;6.28;;
16577;SDS011;8401;52.528;13.340;2023-10-13T08:50:38;8.67;;;6.20;;
16577;SDS011;8401;52.528;13.340;2023-10-13T08:55:53;7.87;;;6.13;;
16577;SDS011;8401;52.528;13.340;2023-10-13T08:58:30;8.70;;;6.47;;
16577;SDS011;8401;52.528;13.340;2023-10-13T09:01:18;10.27;;;6.53;;
16577;SDS011;8401;52.528;13.340;2023-10-13T09:04:07;11.88;;;6.43;;
16577;SDS011;8401;52.528;13.340;2023-10-13T09:06:43;10.02;;;6.07;;
16577;SDS011;8401;52.528;13.340;2023-10-13T09:09:26;9.77;;;6.75;;
16577;SDS011;8401;52.528;13.340;2023-10-13T09:11:53;7.53;;;5.97;;
16577;SDS011;8401;52.528;13.340;2023-10-13T09:14:41;8.73;;;6.50;;
16577;SDS011;8401;52.528;13.340;2023-10-13T09:17:12;11.65;;;6.28;;
16577;SDS011;8401;52.528;13.340;2023-10-13T09:19:45;10.25;;;6.75;;
16577;SDS011;8401;52.528;13.340;2023-10-13T09:25:00;8.98;;;6.38;;
16577;SDS011;8401;52.528;13.340;2023-10-13T09:27:28;7.95;;;5.82;;
16577;SDS011;8401;52.528;13.340;2023-10-13T09:30:00;8.30;;;6.07;;
16577;SDS011;8401;52.528;13.340;2023-10-13T09:32:43;6.82;;;5.22;;
16577;SDS011;8401;52.528;13.340;2023-10-13T09:35:19;9.30;;;6.20;;
16577;SDS011;8401;52.528;13.340;2023-10-13T09:37:52;9.30;;;5.97;;
16577;SDS011;8401;52.528;13.340;2023-10-13T09:40:21;9.38;;;6.10;;
16577;SDS011;8401;52.528;13.340;2023-10-13T09:43:02;9.63;;;6.25;;
16577;SDS011;8401;52.528;13.340;2023-10-13T09:45:39;9.63;;;6.72;;
16577;SDS011;8401;52.528;13.340;2023-10-13T09:48:36;12.75;;;7.00;;
16577;SDS011;8401;52.528;13.340;2023-10-13T09:51:11;9.05;;;6.45;;
16577;SDS011;8401;52.528;13.340;2023-10-13T09:54:09;9.88;;;7.03;;
16577;SDS011;8401;52.528;13.340;2023-10-13T09:56:39;8.93;;;6.03;;
16577;SDS011;8401;52.528;13.340;2023-10-13T09:59:31;9.07;;;6.53;;
16577;SDS011;8401;52.528;13.340;2023-10-13T10:02:01;11.07;;;7.30;;
16577;SDS011;8401;52.528;13.340;2023-10-13T10:04:50;12.20;;;7.68;;
16577;SDS011;8401;52.528;13.340;2023-10-13T10:07:27;9.25;;;6.15;;
16577;SDS011;8401;52.528;13.340;2023-10-13T10:10:00;9.83;;;6.27;;
16577;SDS011;8401;52.528;13.340;2023-10-13T10:18:01;11.55;;;6.85;;
16577;SDS011;8401;52.528;13.340;2023-10-13T10:20:36;8.13;;;6.10;;
16577;SDS011;8401;52.528;13.340;2023-10-13T10:23:07;10.80;;;6.70;;
16577;SDS011;8401;52.528;13.340;2023-10-13T10:25:37;9.10;;;7.13;;
16577;SDS011;8401;52.528;13.340;2023-10-13T10:28:09;10.05;;;7.18;;
16577;SDS011;8401;52.528;13.340;2023-10-13T10:30:40;9.10;;;7.03;;
16577;SDS011;8401;52.528;13.340;2023-10-13T10:33:07;8.00;;;6.87;;
16577;SDS011;8401;52.528;13.340;2023-10-13T10:35:44;9.10;;;6.40;;
16577;SDS011;8401;52.528;13.340;2023-10-13T10:38:12;16.30;;;7.90;;
16577;SDS011;8401;52.528;13.340;2023-10-13T10:43:27;23.13;;;11.63;;
16577;SDS011;8401;52.528;13.340;2023-10-13T10:46:11;8.75;;;6.07;;
16577;SDS011;8401;52.528;13.340;2023-10-13T10:48:38;15.25;;;7.57;;
16577;SDS011;8401;52.528;13.340;2023-10-13T10:51:08;9.30;;;6.75;;
16577;SDS011;8401;52.528;13.340;2023-10-13T10:53:47;10.25;;;6.30;;
16577;SDS011;8401;52.528;13.340;2023-10-13T10:56:18;9.27;;;6.60;;
16577;SDS011;8401;52.528;13.340;2023-10-13T10:59:03;9.48;;;6.65;;
16577;SDS011;8401;52.528;13.340;2023-10-13T11:01:30;9.77;;;6.28;;
16577;SDS011;8401;52.528;13.340;2023-10-13T11:04:04;8.90;;;7.43;;
16577;SDS011;8401;52.528;13.340;2023-10-13T11:06:44;11.82;;;6.20;;
16577;SDS011;8401;52.528;13.340;2023-10-13T11:09:14;12.18;;;6.57;;
16577;SDS011;8401;52.528;13.340;2023-10-13T11:11:51;12.03;;;7.53;;
16577;SDS011;8401;52.528;13.340;2023-10-13T11:16:52;9.80;;;6.53;;
16577;SDS011;8401;52.528;13.340;2023-10-13T11:19:34;8.90;;;6.90;;
16577;SDS011;8401;52.528;13.340;2023-10-13T11:25:03;10.93;;;6.55;;
16577;SDS011;8401;52.528;13.340;2023-10-13T11:27:39;12.15;;;6.45;;
16577;SDS011;8401;52.528;13.340;2023-10-13T11:30:15;8.93;;;7.00;;
16577;SDS011;8401;52.528;13.340;2023-10-13T11:33:09;12.13;;;6.47;;
16577;SDS011;8401;52.528;13.340;2023-10-13T11:35:39;12.18;;;6.63;;
16577;SDS011;8401;52.528;13.340;2023-10-13T11:38:32;10.10;;;6.88;;
16577;SDS011;8401;52.528;13.340;2023-10-13T11:41:13;10.95;;;6.72;;
16577;SDS011;8401;52.528;13.340;2023-10-13T11:43:45;8.57;;;6.35;;
16577;SDS011;8401;52.528;13.340;2023-10-13T11:46:14;10.30;;;7.25;;
16577;SDS011;8401;52.528;13.340;2023-10-13T11:48:45;9.32;;;6.90;;
16577;SDS011;8401;52.528;13.340;2023-10-13T11:51:19;10.90;;;6.85;;
16577;SDS011;8401;52.528;13.340;2023-10-13T11:53:57;11.85;;;5.90;;
16577;SDS011;8401;52.528;13.340;2023-10-13T11:56:23;8.65;;;6.15;;
16577;SDS011;8401;52.528;13.340;2023-10-13T11:58:49;11.43;;;6.32;;
16577;SDS011;8401;52.528;13.340;2023-10-13T12:01:16;11.25;;;5.85;;
16577;SDS011;8401;52.528;13.340;2023-10-13T12:03:46;9.52;;;6.20;;
16577;SDS011;8401;52.528;13.340;2023-10-13T12:06:31;10.43;;;6.28;;
16577;SDS011;8401;52.528;13.340;2023-10-13T12:11:42;8.63;;;5.65;;
16577;SDS011;8401;52.528;13.340;2023-10-13T12:14:10;8.95;;;5.60;;
16577;SDS011;8401;52.528;13.340;2023-10-13T12:16:45;10.73;;;5.97;;
16577;SDS011;8401;52.528;13.340;2023-10-13T12:19:16;9.00;;;5.75;;
16577;SDS011;8401;52.528;13.340;2023-10-13T12:21:43;12.20;;;6.57;;
16577;SDS011;8401;52.528;13.340;2023-10-13T12:24:09;12.77;;;6.38;;
16577;SDS011;8401;52.528;13.340;2023-10-13T12:26:48;9.63;;;6.05;;
16577;SDS011;8401;52.528;13.340;2023-10-13T12:29:20;9.50;;;5.72;;
16577;SDS011;8401;52.528;13.340;2023-10-13T12:31:48;11.15;;;6.18;;
16577;SDS011;8401;52.528;13.340;2023-10-13T12:34:33;11.32;;;5.40;;
16577;SDS011;8401;52.528;13.340;2023-10-13T12:37:18;11.60;;;5.82;;
16577;SDS011;8401;52.528;13.340;2023-10-13T12:40:04;8.25;;;5.72;;
16577;SDS011;8401;52.528;13.340;2023-10-13T12:42:49;12.35;;;6.50;;
16577;SDS011;8401;52.528;13.340;2023-10-13T12:45:37;8.55;;;5.63;;
16577;SDS011;8401;52.528;13.340;2023-10-13T12:48:22;17.77;;;6.45;;
16577;SDS011;8401;52.528;13.340;2023-10-13T12:51:06;7.32;;;4.90;;
16577;SDS011;8401;52.528;13.340;2023-10-13T12:53:55;11.68;;;5.60;;
16577;SDS011;8401;52.528;13.340;2023-10-13T12:56:30;11.95;;;5.72;;
16577;SDS011;8401;52.528;13.340;2023-10-13T12:58:56;10.95;;;5.65;;
16577;SDS011;8401;52.528;13.340;2023-10-13T13:01:23;12.27;;;6.38;;
16577;SDS011;8401;52.528;13.340;2023-10-13T13:03:50;10.38;;;5.95;;
16577;SDS011;8401;52.528;13.340;2023-10-13T13:06:21;10.57;;;5.72;;
16577;SDS011;8401;52.528;13.340;2023-10-13T13:08:52;8.88;;;5.32;;
16577;SDS011;8401;52.528;13.340;2023-10-13T13:11:18;10.77;;;5.75;;
16577;SDS011;8401;52.528;13.340;2023-10-13T13:13:44;7.35;;;4.75;;
16577;SDS011;8401;52.528;13.340;2023-10-13T13:16:13;10.55;;;5.80;;
16577;SDS011;8401;52.528;13.340;2023-10-13T13:18:43;11.10;;;4.72;;
16577;SDS011;8401;52.528;13.340;2023-10-13T13:21:11;9.93;;;6.10;;
16577;SDS011;8401;52.528;13.340;2023-10-13T13:23:37;13.63;;;5.50;;
16577;SDS011;8401;52.528;13.340;2023-10-13T13:26:05;9.27;;;4.82;;
16577;SDS011;8401;52.528;13.340;2023-10-13T13:28:49;13.02;;;5.15;;
16577;SDS011;8401;52.528;13.340;2023-10-13T13:31:18;12.45;;;5.45;;
16577;SDS011;8401;52.528;13.340;2023-10-13T13:33:50;9.95;;;5.88;;
16577;SDS011;8401;52.528;13.340;2023-10-13T13:36:15;14.35;;;6.10;;
16577;SDS011;8401;52.528;13.340;2023-10-13T13:38:42;11.07;;;6.13;;
16577;SDS011;8401;52.528;13.340;2023-10-13T13:41:14;10.05;;;5.90;;
16577;SDS011;8401;52.528;13.340;2023-10-13T13:43:48;8.55;;;5.63;;
16577;SDS011;8401;52.528;13.340;2023-10-13T13:46:17;8.77;;;5.35;;
16577;SDS011;8401;52.528;13.340;2023-10-13T13:48:44;9.80;;;5.10;;
16577;SDS011;8401;52.528;13.340;2023-10-13T13:51:13;10.75;;;5.07;;
16577;SDS011;8401;52.528;13.340;2023-10-13T13:53:42;7.90;;;5.47;;
16577;SDS011;8401;52.528;13.340;2023-10-13T13:56:13;10.07;;;6.38;;
16577;SDS011;8401;52.528;13.340;2023-10-13T13:58:42;14.63;;;6.03;;
16577;SDS011;8401;52.528;13.340;2023-10-13T14:01:08;11.00;;;6.45;;
16577;SDS011;8401;52.528;13.340;2023-10-13T14:03:43;11.82;;;5.13;;
16577;SDS011;8401;52.528;13.340;2023-10-13T14:06:14;9.45;;;5.32;;
16577;SDS011;8401;52.528;13.340;2023-10-13T14:09:00;11.43;;;5.07;;
16577;SDS011;8401;52.528;13.340;2023-10-13T14:11:29;13.18;;;6.20;;
16577;SDS011;8401;52.528;13.340;2023-10-13T14:14:04;10.18;;;5.78;;
16577;SDS011;8401;52.528;13.340;2023-10-13T14:16:37;10.95;;;4.85;;
16577;SDS011;8401;52.528;13.340;2023-10-13T14:19:09;12.52;;;6.00;;
16577;SDS011;8401;52.528;13.340;2023-10-13T14:21:36;10.50;;;5.65;;
16577;SDS011;8401;52.528;13.340;2023-10-13T14:24:01;13.55;;;6.13;;
16577;SDS011;8401;52.528;13.340;2023-10-13T14:26:28;10.32;;;5.55;;
16577;SDS011;8401;52.528;13.340;2023-10-13T14:28:55;8.35;;;4.93;;
16577;SDS011;8401;52.528;13.340;2023-10-13T14:31:27;8.30;;;5.10;;
16577;SDS011;8401;52.528;13.340;2023-10-13T14:33:53;8.82;;;5.45;;
16577;SDS011;8401;52.528;13.340;2023-10-13T14:36:19;13.98;;;5.43;;
16577;SDS011;8401;52.528;13.340;2023-10-13T14:38:47;7.30;;;4.90;;
16577;SDS011;8401;52.528;13.340;2023-10-13T14:41:15;10.23;;;5.35;;
16577;SDS011;8401;52.528;13.340;2023-10-13T14:43:44;8.75;;;4.95;;
16577;SDS011;8401;52.528;13.340;2023-10-13T14:46:13;10.68;;;5.28;;
16577;SDS011;8401;52.528;13.340;2023-10-13T14:48:40;8.68;;;5.43;;
16577;SDS011;8401;52.528;13.340;2023-10-13T14:51:09;10.07;;;4.90;;
16577;SDS011;8401;52.528;13.340;2023-10-13T14:53:40;15.45;;;5.20;;
16577;SDS011;8401;52.528;13.340;2023-10-13T14:56:10;9.90;;;5.43;;
16577;SDS011;8401;52.528;13.340;2023-10-13T14:58:39;11.65;;;4.78;;
16577;SDS011;8401;52.528;13.340;2023-10-13T15:03:47;14.93;;;5.80;;
16577;SDS011;8401;52.528;13.340;2023-10-13T15:06:24;11.18;;;5.60;;
16577;SDS011;8401;52.528;13.340;2023-10-13T15:08:54;12.13;;;5.60;;
16577;SDS011;8401;52.528;13.340;2023-10-13T15:11:21;8.25;;;5.45;;
16577;SDS011;8401;52.528;13.340;2023-10-13T15:13:51;10.10;;;5.63;;
16577;SDS011;8401;52.528;13.340;2023-10-13T15:16:18;9.93;;;5.70;;
16577;SDS011;8401;52.528;13.340;2023-10-13T15:18:46;12.45;;;5.88;;
16577;SDS011;8401;52.528;13.340;2023-10-13T15:21:24;12.90;;;5.70;;
16577;SDS011;8401;52.528;13.340;2023-10-13T15:23:59;10.88;;;5.70;;
16577;SDS011;8401;52.528;13.340;2023-10-13T15:26:32;10.52;;;5.75;;
16577;SDS011;8401;52.528;13.340;2023-10-13T15:29:03;14.43;;;6.03;;
16577;SDS011;8401;52.528;13.340;2023-10-13T15:31:33;12.57;;;5.72;;
16577;SDS011;8401;52.528;13.340;2023-10-13T15:34:03;11.77;;;5.47;;
16577;SDS011;8401;52.528;13.340;2023-10-13T15:36:38;13.15;;;6.22;;
16577;SDS011;8401;52.528;13.340;2023-10-13T15:39:11;12.82;;;5.68;;
16577;SDS011;8401;52.528;13.340;2023-10-13T15:41:41;12.77;;;5.88;;
16577;SDS011;8401;52.528;13.340;2023-10-13T15:44:12;12.73;;;5.18;;
16577;SDS011;8401;52.528;13.340;2023-10-13T15:46:38;10.45;;;5.53;;